Latest Weather Observations for Arlington Reef

IDQ60801

Issued at 11:35 am EST Saturday 1 November 2014 (issued every 30 minutes, with the page automatically refreshed every 10 minutes)

About weather observations | Map of weather stations | Latest weather observations for QLD | Other Formats
Station Details ID: 200879 Name: ARLINGTON REEF Lat: -16.72 Lon: 146.11 Height: 0.0 m
Data from the previous 72 hours. | See also: Recent months at Arlington Reef
Date/Time
EST
Temp
°C
App
Temp
°C
Dew
Point
Rel
Hum
%
Delta-T
°C
Wind Press
QNH
hPa
Press
MSL
hPa
Rain
since 9 am
mm
Dir
 
Spd
km/h
Gust
km/h
Spd
kts
Gust
kts
01/11:30am - - - - - SSE 11 13 6 7 1014.7 1014.7 -
01/11:00am - - - - - SE 11 13 6 7 1014.8 1014.8 -
01/10:30am - - - - - ESE 11 15 6 8 1015.2 1015.2 -
01/10:00am - - - - - ESE 15 15 8 8 1015.3 1015.3 -
01/09:30am - - - - - ESE 15 17 8 9 1015.4 1015.4 -
01/09:00am - - - - - E 17 19 9 10 1015.4 1015.4 -
01/08:30am - - - - - ESE 17 19 9 10 1015.2 1015.2 -
01/08:00am - - - - - ESE 17 19 9 10 1015.0 1015.0 -
01/07:30am - - - - - ESE 19 20 10 11 1014.7 1014.7 -
01/07:00am - - - - - ESE 17 20 9 11 1014.4 1014.4 -
01/06:30am - - - - - ESE 19 22 10 12 1014.1 1014.1 -
01/06:00am - - - - - ESE 20 22 11 12 1013.6 1013.6 -
01/05:30am - - - - - ESE 19 22 10 12 1013.3 1013.3 -
01/05:00am - - - - - ESE 17 20 9 11 1013.0 1013.0 -
01/04:30am - - - - - ESE 19 20 10 11 1012.7 1012.7 -
01/04:00am - - - - - ESE 17 20 9 11 1012.5 1012.5 -
01/03:30am - - - - - ESE 19 22 10 12 1012.2 1012.2 -
01/03:00am - - - - - ESE 20 26 11 14 1012.0 1012.0 -
01/02:30am - - - - - ESE 20 22 11 12 1012.2 1012.2 -
01/02:00am - - - - - ESE 22 24 12 13 1012.3 1012.3 -
01/01:30am - - - - - ESE 22 24 12 13 1012.6 1012.6 -
01/01:00am - - - - - ESE 20 26 11 14 1012.9 1012.9 -
01/12:30am - - - - - ESE 22 26 12 14 1013.2 1013.2 -
01/12:00am - - - - - ESE 20 24 11 13 1013.6 1013.6 -
 
Date/Time
EST
Temp
°C
App
Temp
°C
Dew
Point
Rel
Hum
%
Delta-T
°C
Wind Press
QNH
hPa
Press
MSL
hPa
Rain
since 9 am
mm
Dir
 
Spd
km/h
Gust
km/h
Spd
kts
Gust
kts
31/11:30pm - - - - - ESE 22 24 12 13 1013.8 1013.8 -
31/11:00pm - - - - - ESE 24 28 13 15 1014.1 1014.1 -
31/10:30pm - - - - - ESE 24 28 13 15 1014.4 1014.4 -
31/10:00pm - - - - - SE 22 26 12 14 1014.6 1014.6 -
31/09:30pm - - - - - SE 20 24 11 13 1014.4 1014.4 -
31/09:00pm - - - - - ESE 22 26 12 14 1013.9 1013.9 -
31/08:30pm - - - - - SE 19 22 10 12 1013.5 1013.5 -
31/08:00pm - - - - - SE 22 24 12 13 1013.2 1013.2 -
31/07:30pm - - - - - SSE 22 26 12 14 1012.9 1012.9 -
31/07:00pm - - - - - SE 20 24 11 13 1012.7 1012.7 -
31/06:30pm - - - - - SE 19 22 10 12 1012.4 1012.4 -
31/06:00pm - - - - - SSE 19 22 10 12 1012.2 1012.2 -
31/05:30pm - - - - - SSE 17 20 9 11 1012.0 1012.0 -
31/05:00pm - - - - - SSE 15 19 8 10 1011.8 1011.8 -
31/04:30pm - - - - - SE 15 19 8 10 1011.6 1011.6 -
31/04:00pm - - - - - SSE 15 20 8 11 1011.6 1011.6 -
31/03:30pm - - - - - S 17 20 9 11 1011.4 1011.4 -
31/03:00pm - - - - - S 17 20 9 11 1011.6 1011.6 -
31/02:30pm - - - - - SSE 15 19 8 10 1011.9 1011.9 -
31/02:00pm - - - - - SSE 15 19 8 10 1012.3 1012.3 -
31/01:30pm - - - - - SE 17 22 9 12 1012.4 1012.4 -
31/01:00pm - - - - - SE 17 20 9 11 1012.8 1012.8 -
31/12:30pm - - - - - SE 13 17 7 9 1013.3 1013.3 -
31/12:00pm - - - - - SSE 11 15 6 8 1013.6 1013.6 -
31/11:30am - - - - - SE 9 11 5 6 1014.0 1014.0 -
31/11:00am - - - - - ESE 7 9 4 5 1014.4 1014.4 -
31/10:30am - - - - - ESE 7 9 4 5 1014.6 1014.6 -
31/10:00am - - - - - E 7 11 4 6 1014.7 1014.7 -
31/09:30am - - - - - E 9 11 5 6 1015.0 1015.0 -
31/09:00am - - - - - E 15 17 8 9 1015.0 1015.0 -
31/08:30am - - - - - ESE 15 19 8 10 1014.9 1014.9 -
31/08:00am - - - - - ESE 17 19 9 10 1014.6 1014.6 -
31/07:30am - - - - - SE 17 19 9 10 1014.2 1014.2 -
31/07:00am - - - - - ESE 22 26 12 14 1013.8 1013.8 -
31/06:30am - - - - - SE 13 17 7 9 1013.5 1013.5 -
31/06:00am - - - - - SE 15 19 8 10 1012.9 1012.9 -
31/05:30am - - - - - ESE 15 17 8 9 1012.8 1012.8 -
31/05:00am - - - - - ESE 15 19 8 10 1012.6 1012.6 -
31/04:30am - - - - - E 17 22 9 12 1012.4 1012.4 -
31/04:00am - - - - - E 20 24 11 13 1012.3 1012.3 -
31/03:30am - - - - - E 19 22 10 12 1012.1 1012.1 -
31/03:00am - - - - - ESE 20 24 11 13 1011.9 1011.9 -
31/02:30am - - - - - ESE 19 22 10 12 1012.1 1012.1 -
31/02:00am - - - - - ESE 20 24 11 13 1012.3 1012.3 -
31/01:30am - - - - - SE 17 20 9 11 1012.5 1012.5 -
31/01:00am - - - - - ESE 17 20 9 11 1013.1 1013.1 -
31/12:30am - - - - - SE 19 22 10 12 1013.5 1013.5 -
31/12:00am - - - - - SE 19 22 10 12 1013.5 1013.5 -
 
Date/Time
EST
Temp
°C
App
Temp
°C
Dew
Point
Rel
Hum
%
Delta-T
°C
Wind Press
QNH
hPa
Press
MSL
hPa
Rain
since 9 am
mm
Dir
 
Spd
km/h
Gust
km/h
Spd
kts
Gust
kts
30/11:30pm - - - - - ESE 17 20 9 11 1013.9 1013.9 -
30/11:00pm - - - - - ESE 20 24 11 13 1014.0 1014.0 -
30/10:30pm - - - - - ESE 22 26 12 14 1014.0 1014.0 -
30/10:00pm - - - - - SE 20 24 11 13 1014.0 1014.0 -
30/09:30pm - - - - - SE 20 24 11 13 1013.8 1013.8 -
30/09:00pm - - - - - SE 20 28 11 15 1013.5 1013.5 -
30/08:30pm - - - - - ESE 22 24 12 13 1013.2 1013.2 -
30/08:00pm - - - - - SE 22 24 12 13 1012.9 1012.9 -
30/07:30pm - - - - - SE 22 26 12 14 1012.7 1012.7 -
30/07:00pm - - - - - SE 20 24 11 13 1012.3 1012.3 -
30/06:30pm - - - - - SE 20 24 11 13 1012.1 1012.1 -
30/06:00pm - - - - - SE 19 24 10 13 1011.8 1011.8 -
30/05:30pm - - - - - SE 17 20 9 11 1011.5 1011.5 -
30/05:00pm - - - - - SE 15 19 8 10 1011.4 1011.4 -
30/04:30pm - - - - - SSE 15 19 8 10 1011.3 1011.3 -
30/04:00pm - - - - - SSE 15 17 8 9 1011.3 1011.3 -
30/03:30pm - - - - - SSE 15 19 8 10 1011.4 1011.4 -
30/03:00pm - - - - - SSE 17 22 9 12 1011.6 1011.6 -
30/02:30pm - - - - - SSE 17 20 9 11 1012.0 1012.0 -
30/02:00pm - - - - - SSE 17 19 9 10 1012.2 1012.2 -
30/01:30pm - - - - - SSE 17 20 9 11 1012.8 1012.8 -
30/01:00pm - - - - - SE 17 20 9 11 1013.1 1013.1 -
30/12:30pm - - - - - SE 20 24 11 13 1013.7 1013.7 -
30/12:00pm - - - - - SSE 19 20 10 11 1014.1 1014.1 -
30/11:30am - - - - - SSE 20 26 11 14 1014.5 1014.5 -
30/11:00am - - - - - SSE 20 26 11 14 1014.8 1014.8 -
30/10:30am - - - - - SE 19 22 10 12 1015.2 1015.2 -
30/10:00am - - - - - SE 20 22 11 12 1015.4 1015.4 -
30/09:30am - - - - - SE 20 24 11 13 1015.6 1015.6 -
30/09:00am - - - - - SE 19 22 10 12 1015.5 1015.5 -
30/08:30am - - - - - SE 13 15 7 8 1015.1 1015.1 -
30/08:00am - - - - - ESE 11 13 6 7 1014.5 1014.5 -
30/07:30am - - - - - ESE 9 13 5 7 1014.3 1014.3 -
30/07:00am - - - - - ESE 9 11 5 6 1013.8 1013.8 -
30/06:30am - - - - - ESE 9 11 5 6 1013.6 1013.6 -
30/06:00am - - - - - ESE 7 9 4 5 1013.3 1013.3 -
30/05:30am - - - - - E 9 11 5 6 1013.1 1013.1 -
30/05:00am - - - - - SE 7 9 4 5 1012.7 1012.7 -
30/04:30am - - - - - E 6 9 3 5 1012.4 1012.4 -
30/04:00am - - - - - E 4 7 2 4 1012.1 1012.1 -
30/03:30am - - - - - NE 7 9 4 5 1012.0 1012.0 -
30/03:00am - - - - - NE 4 6 2 3 1012.1 1012.1 -
30/02:30am - - - - - NE 6 7 3 4 1012.2 1012.2 -
30/02:00am - - - - - ENE 7 9 4 5 1012.6 1012.6 -
30/01:30am - - - - - ENE 11 15 6 8 1013.0 1013.0 -
30/01:00am - - - - - E 9 11 5 6 1013.2 1013.2 -
30/12:30am - - - - - ENE 11 15 6 8 1013.4 1013.4 -
30/12:00am - - - - - ENE 9 13 5 7 1013.7 1013.7 -
 
Date/Time
EST
Temp
°C
App
Temp
°C
Dew
Point
Rel
Hum
%
Delta-T
°C
Wind Press
QNH
hPa
Press
MSL
hPa
Rain
since 9 am
mm
Dir
 
Spd
km/h
Gust
km/h
Spd
kts
Gust
kts
29/11:30pm - - - - - ENE 9 13 5 7 1013.8 1013.8 -
29/11:00pm - - - - - E 9 11 5 6 1014.2 1014.2 -
29/10:30pm - - - - - E 9 13 5 7 1014.1 1014.1 -
29/10:00pm - - - - - ENE 9 13 5 7 1014.1 1014.1 -
29/09:30pm - - - - - ENE 9 11 5 6 1013.8 1013.8 -
29/09:00pm - - - - - E 9 13 5 7 1013.6 1013.6 -
29/08:30pm - - - - - E 9 11 5 6 1013.3 1013.3 -
29/08:00pm - - - - - E 7 11 4 6 1013.2 1013.2 -
29/07:30pm - - - - - ESE 9 13 5 7 1013.1 1013.1 -
29/07:00pm - - - - - ESE 9 13 5 7 1013.1 1013.1 -
29/06:30pm - - - - - E 11 15 6 8 1013.0 1013.0 -
29/06:00pm - - - - - ESE 9 13 5 7 1013.0 1013.0 -
29/05:30pm - - - - - E 7 11 4 6 1012.7 1012.7 -
29/05:00pm - - - - - E 9 13 5 7 1012.3 1012.3 -
29/04:30pm - - - - - E 9 13 5 7 1012.2 1012.2 -
29/04:00pm - - - - - ESE 7 11 4 6 1012.2 1012.2 -
29/03:30pm - - - - - E 7 9 4 5 1012.1 1012.1 -
29/03:00pm - - - - - ESE 7 11 4 6 1012.4 1012.4 -
29/02:30pm - - - - - ESE 2 6 1 3 1012.8 1012.8 -
29/02:00pm - - - - - E 4 7 2 4 1013.0 1013.0 -
29/01:30pm - - - - - E 6 9 3 5 1013.4 1013.4 -
29/01:00pm - - - - - ESE 4 7 2 4 1013.6 1013.6 -
29/12:30pm - - - - - SE 6 7 3 4 1013.8 1013.8 -
29/12:00pm - - - - - SE 7 11 4 6 1014.3 1014.3 -

Other Formats:

Comma delimited format used in spreadsheet applications
http://www.bom.gov.au/fwo/IDQ60801/IDQ60801.94284.axf

JavaScript Object Notation format (JSON) in row-major order
http://www.bom.gov.au/fwo/IDQ60801/IDQ60801.94284.json